createdAt,value
2023-04-15T00:01:00.392Z,99474.16
2023-04-15T00:04:35.478Z,99476.34
2023-04-15T00:08:16.534Z,99480.53
2023-04-15T00:11:53.634Z,99476.75
2023-04-15T00:18:58.126Z,99485.22
2023-04-15T00:22:38.620Z,99482.50
2023-04-15T00:26:08.717Z,99484.91
2023-04-15T00:29:36.102Z,99479.50
2023-04-15T00:44:15.438Z,99470.47
2023-04-15T00:47:54.097Z,99471.28
2023-04-15T00:51:32.585Z,99466.47
2023-04-15T00:55:09.251Z,99465.78
2023-04-15T00:58:53.220Z,99469.78
2023-04-15T01:20:21.424Z,99454.84
2023-04-15T01:27:32.495Z,99463.38
2023-04-15T01:31:15.444Z,99462.34
2023-04-15T01:34:51.265Z,99462.88
2023-04-15T01:49:12.465Z,99463.69
2023-04-15T02:03:59.878Z,99469.03
2023-04-15T02:11:25.052Z,99490.56
2023-04-15T02:22:18.986Z,99489.63
2023-04-15T02:25:53.618Z,99483.66
2023-04-15T02:29:35.235Z,99480.41
2023-04-15T02:32:59.446Z,99480.06
2023-04-15T02:36:34.885Z,99491.84
2023-04-15T02:40:27.461Z,99488.50
2023-04-15T02:44:05.113Z,99492.50
2023-04-15T02:47:48.524Z,99487.81
2023-04-15T02:51:26.117Z,99487.25
2023-04-15T02:55:06.742Z,99479.91
2023-04-15T02:58:39.411Z,99480.00
2023-04-15T03:02:17.059Z,99480.41
2023-04-15T03:05:58.310Z,99473.00
2023-04-15T03:09:42.788Z,99484.06
2023-04-15T03:13:21.728Z,99482.16
2023-04-15T03:17:01.570Z,99480.56
2023-04-15T03:20:21.318Z,99476.91
2023-04-15T03:24:00.743Z,99473.19
2023-04-15T03:27:39.713Z,99474.50
2023-04-15T03:31:19.939Z,99468.00
2023-04-15T03:34:45.071Z,99471.16
2023-04-15T03:38:22.942Z,99466.25
2023-04-15T03:42:00.430Z,99474.03
2023-04-15T03:45:20.695Z,99472.03
2023-04-15T03:49:00.968Z,99471.28
2023-04-15T03:52:36.158Z,99472.91
2023-04-15T03:55:56.773Z,99472.12
2023-04-15T04:06:40.641Z,99471.16
2023-04-15T04:10:26.623Z,99476.81
2023-04-15T04:13:48.356Z,99468.78
2023-04-15T04:28:26.629Z,99465.75
2023-04-15T04:31:49.864Z,99468.94
2023-04-15T04:35:16.541Z,99473.19
2023-04-15T04:54:12.591Z,99476.97
2023-04-15T05:01:17.987Z,99478.97
2023-04-15T05:04:43.818Z,99485.38
2023-04-15T05:08:25.099Z,99482.37
2023-04-15T05:55:29.864Z,99507.38
2023-04-15T05:59:21.979Z,99513.16
2023-04-15T06:02:28.103Z,99511.34
2023-04-15T06:05:52.738Z,99513.75
2023-04-15T06:08:58.735Z,99517.44
2023-04-15T06:12:42.704Z,99514.81
2023-04-15T06:15:45.664Z,99520.63
2023-04-15T06:19:12.699Z,99513.00
2023-04-15T06:22:37.693Z,99517.81
2023-04-15T06:25:44.891Z,99519.03
2023-04-15T06:28:50.725Z,99520.87
2023-04-15T06:31:58.964Z,99525.66
2023-04-15T06:35:08.388Z,99522.28
2023-04-15T06:38:56.651Z,99528.19
2023-04-15T06:42:22.060Z,99527.13
2023-04-15T06:45:49.110Z,99536.84
2023-04-15T06:48:55.123Z,99549.81
2023-04-15T06:52:27.868Z,99540.44
2023-04-15T06:55:31.745Z,99543.72
2023-04-15T06:59:18.182Z,99548.75
2023-04-15T07:02:45.528Z,99546.38
2023-04-15T07:06:09.918Z,99540.06
2023-04-15T07:09:12.953Z,99539.25
2023-04-15T07:12:25.647Z,99540.88
2023-04-15T07:15:30.622Z,99536.87
2023-04-15T07:19:16.603Z,99540.56
2023-04-15T07:22:42.888Z,99541.88
2023-04-15T07:26:32.805Z,99543.03
2023-04-15T07:29:56.786Z,99549.78
2023-04-15T07:33:21.815Z,99545.19
2023-04-15T07:36:46.308Z,99545.84
2023-04-15T07:40:17.867Z,99551.81
2023-04-15T07:43:23.464Z,99542.38
2023-04-15T07:46:29.911Z,99542.13
2023-04-15T07:49:56.955Z,99545.75
2023-04-15T07:53:35.783Z,99542.31
2023-04-15T07:57:26.880Z,99548.81
2023-04-15T08:00:35.184Z,99542.81
2023-04-15T08:04:06.363Z,99548.47
2023-04-15T08:07:11.658Z,99546.47
2023-04-15T08:11:00.166Z,99542.66
2023-04-15T08:14:05.998Z,99546.34
2023-04-15T08:17:33.020Z,99543.00
2023-04-15T08:21:01.366Z,99542.53
2023-04-15T08:25:00.600Z,99559.66
2023-04-15T08:28:07.789Z,99552.19
2023-04-15T08:31:51.432Z,99557.84
2023-04-15T08:39:46.861Z,99565.87
2023-04-15T08:43:51.878Z,99572.75
2023-04-15T08:51:11.202Z,99576.00
2023-04-15T09:58:29.907Z,99572.69
2023-04-15T10:24:31.564Z,99606.75
2023-04-15T12:31:29.825Z,99634.56
2023-04-15T12:39:48.043Z,99642.56
2023-04-15T13:18:05.712Z,99658.44
2023-04-15T13:58:06.464Z,99676.03
2023-04-15T14:08:55.818Z,99671.88
2023-04-15T14:12:25.559Z,99681.37
2023-04-15T14:15:54.874Z,99683.22
2023-04-15T14:19:24.089Z,99681.63
2023-04-15T14:22:45.958Z,99683.66
2023-04-15T14:26:20.705Z,99692.28
2023-04-15T14:29:41.046Z,99688.75
2023-04-15T14:33:13.172Z,99694.69
2023-04-15T14:36:28.686Z,99697.59
2023-04-15T14:39:50.064Z,99703.06
2023-04-15T14:43:17.243Z,99703.59
2023-04-15T14:46:47.539Z,99697.75
2023-04-15T14:50:06.760Z,99709.16
2023-04-15T14:53:24.753Z,99707.81
2023-04-15T14:56:56.235Z,99708.91
2023-04-15T15:00:15.989Z,99711.09
2023-04-15T15:03:46.949Z,99701.28
2023-04-15T15:07:17.935Z,99715.03
2023-04-15T15:10:54.003Z,99716.06
2023-04-15T15:14:29.574Z,99716.72
2023-04-15T15:18:05.855Z,99720.34
2023-04-15T15:21:24.940Z,99727.50
2023-04-15T15:24:48.187Z,99731.94
2023-04-15T15:28:28.643Z,99727.72
2023-04-15T15:31:51.777Z,99735.88
2023-04-15T15:35:23.561Z,99736.38
2023-04-15T15:38:47.723Z,99748.59
2023-04-15T15:42:25.241Z,99739.63
2023-04-15T15:45:55.723Z,99761.19
2023-04-15T15:49:15.262Z,99760.28
2023-04-15T15:52:42.174Z,99776.81
2023-04-15T15:56:20.585Z,99773.09
2023-04-15T15:59:48.160Z,99775.16
2023-04-15T16:03:17.206Z,99783.16
2023-04-15T16:06:52.587Z,99787.37
2023-04-15T16:10:29.311Z,99787.41
2023-04-15T16:13:57.039Z,99795.34
2023-04-15T16:17:15.159Z,99794.84
2023-04-15T16:20:39.111Z,99790.63
2023-04-15T16:24:11.373Z,99788.53
2023-04-15T16:27:58.886Z,99797.00
2023-04-15T16:31:07.639Z,99783.19
2023-04-15T16:34:27.475Z,99795.06
2023-04-15T16:38:04.146Z,99783.38
2023-04-15T16:41:42.829Z,99794.97
2023-04-15T16:45:07.647Z,99795.69
2023-04-15T16:48:29.840Z,99799.88
2023-04-15T16:51:57.842Z,99813.00
2023-04-15T16:55:18.775Z,99816.69
2023-04-15T16:58:35.731Z,99818.22
2023-04-15T17:01:56.048Z,99822.44
2023-04-15T17:05:24.372Z,99830.34
2023-04-15T17:08:57.614Z,99839.53
2023-04-15T17:12:17.068Z,99844.75
2023-04-15T17:15:46.782Z,99846.00
2023-04-15T17:19:21.165Z,99852.81
2023-04-15T17:22:53.282Z,99855.91
2023-04-15T17:26:18.969Z,99859.53
2023-04-15T17:29:58.563Z,99866.31
2023-04-15T17:33:56.099Z,99870.22
2023-04-15T17:36:55.507Z,99868.31
2023-04-15T17:40:14.956Z,99873.28
2023-04-15T17:43:32.131Z,99874.38
2023-04-15T17:47:02.270Z,99879.91
2023-04-15T17:50:32.441Z,99885.13
2023-04-15T17:53:49.792Z,99885.84
2023-04-15T17:57:06.899Z,99888.88
2023-04-15T18:00:31.077Z,99886.41
2023-04-15T18:04:08.118Z,99899.72
2023-04-15T18:07:41.844Z,99900.97
2023-04-15T18:11:21.094Z,99908.06
2023-04-15T18:14:59.827Z,99914.09
2023-04-15T18:18:35.987Z,99914.81
2023-04-15T18:22:00.886Z,99918.44
2023-04-15T18:25:35.528Z,99916.53
2023-04-15T18:29:05.260Z,99932.84
2023-04-15T18:32:31.994Z,99935.69
2023-04-15T19:13:36.981Z,100015.34
2023-04-15T19:28:00.006Z,100033.31
2023-04-15T19:35:17.419Z,100028.84
2023-04-15T19:42:32.931Z,100043.84
2023-04-15T20:04:35.836Z,100060.91
2023-04-15T20:12:09.987Z,100070.13
2023-04-15T20:15:16.583Z,100067.03
2023-04-15T20:18:53.509Z,100070.81
2023-04-15T20:22:27.338Z,100066.09
2023-04-15T20:44:54.039Z,100074.56
2023-04-15T20:48:24.502Z,100078.31
2023-04-15T20:53:05.010Z,100075.69
2023-04-15T21:00:28.128Z,100086.03
2023-04-15T21:08:10.980Z,100101.16
2023-04-15T21:15:40.305Z,100116.28
2023-04-15T21:19:19.681Z,100117.22
2023-04-15T21:22:53.854Z,100116.66
2023-04-15T21:26:29.044Z,100122.37
2023-04-15T21:40:59.890Z,100134.72
2023-04-15T21:44:40.543Z,100146.44
2023-04-15T21:48:22.676Z,100142.41
2023-04-15T21:55:31.807Z,100150.88
2023-04-15T22:02:48.423Z,100147.59
2023-04-15T23:29:41.008Z,100161.41
2023-04-15T23:47:56.530Z,100180.25
2023-04-15T23:55:50.994Z,100185.97
